Time;durP1;ratioP1;P1;durP2;ratioP2;P2;SDS_P1;SDS_P2;PMS_P1;PMS_P2;Temp;Humidity;BMP_temperature;BMP_pressure;BME280_temperature;BME280_humidity;BME280_pressure;Samples;Min_cycle;Max_cycle;Signal;HPM_P1;HPM_P2
2022/10/09 00:02:19;;;;;;;;;20.33;13.33;;;;;;;;5017808;28;45432;-66
2022/10/09 00:04:44;;;;;;;;;21.33;16.00;;;;;;;;5018177;28;45426;-66
2022/10/09 00:07:09;;;;;;;;;15.67;14.67;;;;;;;;5017543;28;45506;-66
2022/10/09 00:09:35;;;;;;;;;13.33;13.33;;;;;;;;5016541;28;45496;-67
2022/10/09 00:12:00;;;;;;;;;15.00;12.67;;;;;;;;5017966;28;45310;-66
2022/10/09 00:14:25;;;;;;;;;20.00;18.00;;;;;;;;5017808;28;45232;-67
2022/10/09 00:16:52;;;;;;;;;19.00;15.33;;;;;;;;5017654;28;45377;-66
2022/10/09 00:19:18;;;;;;;;;18.00;13.00;;;;;;;;5015315;28;45449;-66
2022/10/09 00:21:43;;;;;;;;;18.33;17.33;;;;;;;;5017737;28;45323;-66
2022/10/09 00:24:08;;;;;;;;;20.67;13.33;;;;;;;;5017880;28;45356;-66
2022/10/09 00:26:33;;;;;;;;;16.33;16.33;;;;;;;;5017523;28;46499;-66
2022/10/09 00:28:59;;;;;;;;;16.33;15.00;;;;;;;;5017372;28;45397;-66
2022/10/09 00:31:24;;;;;;;;;21.33;18.00;;;;;;;;5017465;28;45744;-66
2022/10/09 00:33:49;;;;;;;;;18.67;15.33;;;;;;;;5017317;28;45436;-66
2022/10/09 00:36:16;;;;;;;;;12.00;12.00;;;;;;;;5017489;28;46092;-66
2022/10/09 00:38:42;;;;;;;;;22.00;18.00;;;;;;;;5016130;28;45322;-66
2022/10/09 00:41:07;;;;;;;;;15.67;14.00;;;;;;;;5017387;28;45299;-66
2022/10/09 00:43:52;;;;;;;;;12.33;11.33;;;;;;;;5017359;28;45680;-66
2022/10/09 00:46:23;;;;;;;;;62.67;45.00;;;;;;;;5017047;28;46481;-66
2022/10/09 00:48:52;;;;;;;;;27.00;24.33;;;;;;;;5016778;28;45539;-66
2022/10/09 00:51:18;;;;;;;;;21.67;17.33;;;;;;;;5017207;28;45259;-66
2022/10/09 00:53:43;;;;;;;;;17.67;15.00;;;;;;;;5017291;28;45342;-66
2022/10/09 00:56:08;;;;;;;;;17.33;16.00;;;;;;;;5015522;28;45228;-66
2022/10/09 00:58:34;;;;;;;;;18.33;14.67;;;;;;;;5017002;28;45356;-66
2022/10/09 01:00:59;;;;;;;;;16.33;13.67;;;;;;;;5017152;28;45316;-66
2022/10/09 01:03:24;;;;;;;;;18.33;14.00;;;;;;;;5017123;28;45499;-66
2022/10/09 01:05:49;;;;;;;;;23.67;17.67;;;;;;;;5016820;28;46633;-67
2022/10/09 01:08:44;;;;;;;;;19.00;11.33;;;;;;;;5015237;28;45411;-66
2022/10/09 01:11:15;;;;;;;;;19.67;17.00;;;;;;;;5033594;28;45283;-66
2022/10/09 01:13:46;;;;;;;;;20.67;14.33;;;;;;;;5034190;28;45501;-66
2022/10/09 01:16:14;;;;;;;;;16.00;13.33;;;;;;;;5034274;28;46591;-66
2022/10/09 01:19:03;;;;;;;;;14.00;12.00;;;;;;;;5032323;28;45626;-66
2022/10/09 01:21:33;;;;;;;;;12.00;11.33;;;;;;;;5037172;28;45495;-66
2022/10/09 01:24:07;;;;;;;;;16.67;13.67;;;;;;;;5038457;28;45466;-66
2022/10/09 01:26:51;;;;;;;;;14.33;14.00;;;;;;;;5037841;28;46440;-66
2022/10/09 01:29:18;;;;;;;;;16.00;14.33;;;;;;;;5020946;28;45422;-66
2022/10/09 01:31:45;;;;;;;;;14.33;14.33;;;;;;;;5036376;28;45429;-66
2022/10/09 01:34:12;;;;;;;;;19.67;7.67;;;;;;;;5038038;28;45481;-66
2022/10/09 01:36:38;;;;;;;;;19.00;17.00;;;;;;;;5036649;28;45349;-66
2022/10/09 01:39:05;;;;;;;;;15.00;13.00;;;;;;;;5037614;28;45255;-66
2022/10/09 01:41:30;;;;;;;;;17.00;14.67;;;;;;;;5036051;28;45452;-66
2022/10/09 01:43:56;;;;;;;;;12.00;12.00;;;;;;;;5028308;28;45254;-66
2022/10/09 01:46:26;;;;;;;;;16.00;13.67;;;;;;;;5024882;28;45532;-66
2022/10/09 01:48:56;;;;;;;;;13.00;11.67;;;;;;;;5004197;28;45460;-66
2022/10/09 01:51:25;;;;;;;;;16.67;14.00;;;;;;;;5003289;28;45365;-66
2022/10/09 01:53:53;;;;;;;;;21.00;15.00;;;;;;;;5006345;28;45403;-66
2022/10/09 01:56:21;;;;;;;;;15.00;12.33;;;;;;;;5004193;28;45522;-66
2022/10/09 01:58:54;;;;;;;;;20.00;16.00;;;;;;;;4999894;28;45358;-66
2022/10/09 02:01:33;;;;;;;;;18.33;14.67;;;;;;;;5019551;28;45203;-67
2022/10/09 02:04:00;;;;;;;;;19.00;16.00;;;;;;;;5019677;28;45211;-66
2022/10/09 02:06:25;;;;;;;;;13.33;13.33;;;;;;;;5019273;28;45612;-66
2022/10/09 02:08:52;;;;;;;;;18.67;15.67;;;;;;;;5019705;28;45367;-66
2022/10/09 02:11:18;;;;;;;;;30.00;27.00;;;;;;;;5018474;28;45690;-66
2022/10/09 02:13:45;;;;;;;;;31.33;24.00;;;;;;;;5019734;28;45417;-66
2022/10/09 02:16:29;;;;;;;;;14.67;14.67;;;;;;;;5019660;28;46127;-66
2022/10/09 02:19:00;;;;;;;;;19.67;17.33;;;;;;;;4999606;28;45274;-66
2022/10/09 02:21:33;;;;;;;;;16.33;16.33;;;;;;;;4999690;28;45311;-66
2022/10/09 02:24:00;;;;;;;;;16.00;14.33;;;;;;;;4999854;28;45369;-66
2022/10/09 02:26:25;;;;;;;;;17.67;15.00;;;;;;;;5018937;28;45340;-66
2022/10/09 02:28:51;;;;;;;;;15.67;15.67;;;;;;;;5016314;28;45423;-66
2022/10/09 02:31:21;;;;;;;;;23.00;15.00;;;;;;;;5019202;28;45290;-66
2022/10/09 02:33:52;;;;;;;;;22.33;17.00;;;;;;;;5019086;28;45534;-66
2022/10/09 02:36:18;;;;;;;;;18.67;14.67;;;;;;;;5019210;28;46623;-66
2022/10/09 02:38:43;;;;;;;;;19.00;16.67;;;;;;;;5019204;28;45420;-66
2022/10/09 02:41:08;;;;;;;;;20.33;18.67;;;;;;;;5019461;28;45401;-66
2022/10/09 02:43:33;;;;;;;;;15.67;12.33;;;;;;;;5019587;28;45429;-66
2022/10/09 02:45:58;;;;;;;;;16.00;13.00;;;;;;;;5017941;28;45469;-66
2022/10/09 02:48:23;;;;;;;;;20.67;16.67;;;;;;;;5019111;28;45441;-66
2022/10/09 02:50:49;;;;;;;;;21.33;18.33;;;;;;;;5018721;28;45226;-66
2022/10/09 02:53:14;;;;;;;;;28.00;23.00;;;;;;;;5019285;28;45167;-66
2022/10/09 02:55:39;;;;;;;;;21.00;16.67;;;;;;;;5018950;28;45527;-67
2022/10/09 02:58:04;;;;;;;;;22.67;20.00;;;;;;;;5019054;28;45412;-66
2022/10/09 03:00:29;;;;;;;;;18.67;17.00;;;;;;;;5019008;28;45347;-67
2022/10/09 03:02:55;;;;;;;;;20.00;16.67;;;;;;;;5018285;28;45373;-66
2022/10/09 03:05:20;;;;;;;;;18.67;18.67;;;;;;;;5018027;28;45540;-66
2022/10/09 03:07:50;;;;;;;;;18.00;16.00;;;;;;;;5018697;28;45516;-66
2022/10/09 03:10:16;;;;;;;;;26.00;20.33;;;;;;;;5019009;28;45366;-66
2022/10/09 03:12:41;;;;;;;;;19.00;17.33;;;;;;;;5018792;28;45330;-66
2022/10/09 03:15:07;;;;;;;;;19.33;16.33;;;;;;;;5018185;28;46507;-66
2022/10/09 03:17:32;;;;;;;;;23.33;20.00;;;;;;;;5018453;28;45370;-66
2022/10/09 03:19:57;;;;;;;;;21.33;17.00;;;;;;;;5019741;28;45549;-66
2022/10/09 03:22:22;;;;;;;;;16.33;14.00;;;;;;;;5026116;28;45764;-66
2022/10/09 03:24:47;;;;;;;;;22.00;18.33;;;;;;;;5034792;28;45532;-66
2022/10/09 03:27:13;;;;;;;;;15.00;15.00;;;;;;;;5033146;28;45246;-66
2022/10/09 03:29:38;;;;;;;;;16.67;15.67;;;;;;;;5018514;28;45289;-66
2022/10/09 03:32:03;;;;;;;;;15.00;15.00;;;;;;;;5018652;28;45305;-66
2022/10/09 03:34:28;;;;;;;;;21.33;16.67;;;;;;;;5018059;28;46449;-66
2022/10/09 03:36:54;;;;;;;;;17.00;13.00;;;;;;;;5017401;28;45508;-66
2022/10/09 03:39:19;;;;;;;;;19.67;19.67;;;;;;;;5018274;28;45596;-66
2022/10/09 03:41:44;;;;;;;;;16.67;14.00;;;;;;;;5018078;28;45800;-66
2022/10/09 03:44:09;;;;;;;;;19.00;14.33;;;;;;;;5018041;28;46344;-66
2022/10/09 03:46:34;;;;;;;;;15.67;12.00;;;;;;;;5018105;28;45386;-66
2022/10/09 03:49:00;;;;;;;;;18.00;17.00;;;;;;;;5018330;28;45320;-66
2022/10/09 03:51:25;;;;;;;;;16.00;14.67;;;;;;;;5017253;28;45437;-67
2022/10/09 03:53:50;;;;;;;;;19.67;16.00;;;;;;;;5017497;28;47181;-66
2022/10/09 03:56:15;;;;;;;;;16.67;16.00;;;;;;;;5017918;28;45281;-66
2022/10/09 03:58:41;;;;;;;;;22.00;19.67;;;;;;;;5018144;28;45294;-66
2022/10/09 04:01:06;;;;;;;;;20.33;17.33;;;;;;;;5018198;28;45398;-66
2022/10/09 04:03:31;;;;;;;;;22.33;16.00;;;;;;;;5017864;28;45551;-66
2022/10/09 04:05:56;;;;;;;;;17.67;17.67;;;;;;;;5017707;28;45400;-66
2022/10/09 04:08:21;;;;;;;;;15.00;14.00;;;;;;;;5016956;28;45207;-65
2022/10/09 04:10:47;;;;;;;;;20.33;12.00;;;;;;;;5017808;28;45214;-66
2022/10/09 04:13:12;;;;;;;;;16.33;12.00;;;;;;;;5017596;28;46347;-66
2022/10/09 04:15:37;;;;;;;;;16.33;15.33;;;;;;;;5017307;28;45439;-66
2022/10/09 04:18:02;;;;;;;;;22.67;15.67;;;;;;;;5017885;28;45285;-66
2022/10/09 04:20:28;;;;;;;;;18.33;15.00;;;;;;;;5017687;28;45588;-65
2022/10/09 04:22:53;;;;;;;;;15.33;14.00;;;;;;;;5017509;28;45451;-66
2022/10/09 04:25:18;;;;;;;;;18.00;12.67;;;;;;;;5016387;28;45389;-66
2022/10/09 04:27:43;;;;;;;;;20.33;14.67;;;;;;;;5017061;28;45168;-65
2022/10/09 04:30:09;;;;;;;;;20.33;16.33;;;;;;;;5017745;28;45404;-66
2022/10/09 04:32:34;;;;;;;;;15.33;14.00;;;;;;;;5017566;28;46444;-65
2022/10/09 04:35:00;;;;;;;;;17.00;13.67;;;;;;;;5017279;28;45514;-65
2022/10/09 04:37:25;;;;;;;;;15.67;14.33;;;;;;;;5017690;28;45287;-66
2022/10/09 04:39:50;;;;;;;;;17.00;13.00;;;;;;;;5017609;28;45324;-66
2022/10/09 04:42:15;;;;;;;;;24.00;16.00;;;;;;;;5016406;28;45421;-66
2022/10/09 04:44:41;;;;;;;;;14.67;13.67;;;;;;;;5016991;28;45243;-66
2022/10/09 04:47:06;;;;;;;;;11.33;11.00;;;;;;;;5017153;28;45521;-66
2022/10/09 04:49:31;;;;;;;;;24.33;18.67;;;;;;;;5017735;28;45305;-66
2022/10/09 04:51:56;;;;;;;;;14.67;12.00;;;;;;;;5016248;28;46520;-66
2022/10/09 04:54:21;;;;;;;;;71.50;56.50;;;;;;;;5014861;28;45242;-66
2022/10/09 04:56:46;;;;;;;;;13.67;10.00;;;;;;;;5017524;28;45399;-65
2022/10/09 04:59:12;;;;;;;;;16.00;13.33;;;;;;;;5017297;28;45283;-66
2022/10/09 05:01:37;;;;;;;;;14.33;12.67;;;;;;;;5016871;28;45432;-66
2022/10/09 05:04:02;;;;;;;;;14.33;11.33;;;;;;;;5016945;28;45512;-65
2022/10/09 05:06:27;;;;;;;;;21.00;17.00;;;;;;;;5016968;28;45463;-66
2022/10/09 05:08:53;;;;;;;;;12.67;12.00;;;;;;;;5016997;28;45519;-66
2022/10/09 05:11:23;;;;;;;;;17.67;14.67;;;;;;;;5015834;28;46250;-66
2022/10/09 05:13:49;;;;;;;;;15.00;13.67;;;;;;;;5016614;28;45496;-66
2022/10/09 05:16:16;;;;;;;;;14.00;13.00;;;;;;;;5016425;28;45439;-66
2022/10/09 05:18:45;;;;;;;;;15.33;10.67;;;;;;;;5016634;28;45547;-66
2022/10/09 05:21:11;;;;;;;;;9.33;9.33;;;;;;;;5016724;28;46008;-65
2022/10/09 05:23:36;;;;;;;;;11.67;11.00;;;;;;;;5016804;28;45504;-65
2022/10/09 05:26:03;;;;;;;;;13.67;12.00;;;;;;;;5016964;28;45448;-66
2022/10/09 05:28:29;;;;;;;;;11.33;10.33;;;;;;;;5015585;28;45412;-66
2022/10/09 05:30:54;;;;;;;;;13.67;12.00;;;;;;;;5016656;28;45953;-66
2022/10/09 05:33:19;;;;;;;;;11.67;11.67;;;;;;;;5016770;28;45337;-66
2022/10/09 05:35:51;;;;;;;;;16.00;11.00;;;;;;;;5016629;28;45370;-65
2022/10/09 05:38:16;;;;;;;;;13.67;11.00;;;;;;;;5015882;28;45423;-65
2022/10/09 05:40:51;;;;;;;;;14.00;10.67;;;;;;;;5016106;28;46632;-66
2022/10/09 05:43:16;;;;;;;;;15.67;10.67;;;;;;;;5015215;28;45421;-65
2022/10/09 05:45:41;;;;;;;;;8.33;6.33;;;;;;;;5016714;28;45278;-66
2022/10/09 05:48:07;;;;;;;;;16.33;10.00;;;;;;;;5016963;28;45346;-66
2022/10/09 05:50:32;;;;;;;;;16.00;9.33;;;;;;;;5016403;28;46292;-66
2022/10/09 05:52:57;;;;;;;;;16.67;10.00;;;;;;;;5016340;28;45269;-65
2022/10/09 05:55:23;;;;;;;;;14.67;12.33;;;;;;;;5015958;28;45195;-66
2022/10/09 05:57:49;;;;;;;;;16.67;13.00;;;;;;;;5016471;28;45527;-66
2022/10/09 06:00:14;;;;;;;;;13.00;11.67;;;;;;;;5014924;28;46598;-66
2022/10/09 06:02:40;;;;;;;;;14.67;10.67;;;;;;;;5016188;28;45301;-66
2022/10/09 06:05:05;;;;;;;;;15.00;11.33;;;;;;;;5019080;28;45281;-66
2022/10/09 06:07:30;;;;;;;;;17.00;14.00;;;;;;;;5019813;28;45308;-66
2022/10/09 06:09:56;;;;;;;;;13.67;10.67;;;;;;;;5019189;28;47168;-66
2022/10/09 06:12:21;;;;;;;;;13.67;12.00;;;;;;;;5019922;28;45370;-66
2022/10/09 06:14:46;;;;;;;;;14.33;11.00;;;;;;;;5019353;28;45336;-66
2022/10/09 06:17:11;;;;;;;;;18.67;12.00;;;;;;;;5018761;28;45451;-66
2022/10/09 06:19:36;;;;;;;;;14.33;12.00;;;;;;;;5019138;28;45318;-66
2022/10/09 06:22:02;;;;;;;;;13.33;10.67;;;;;;;;5019249;28;45315;-65
2022/10/09 06:24:27;;;;;;;;;12.00;10.00;;;;;;;;5019370;28;45536;-66
2022/10/09 06:26:52;;;;;;;;;12.33;10.67;;;;;;;;5019643;28;45267;-66
2022/10/09 06:29:18;;;;;;;;;12.33;11.00;;;;;;;;5019282;28;47512;-66
2022/10/09 06:31:43;;;;;;;;;13.67;10.67;;;;;;;;5019280;28;45369;-65
2022/10/09 06:34:08;;;;;;;;;12.33;10.67;;;;;;;;5017475;28;45500;-66
2022/10/09 06:36:34;;;;;;;;;10.33;8.67;;;;;;;;5019589;28;45286;-66
2022/10/09 06:39:00;;;;;;;;;12.67;12.00;;;;;;;;5019076;28;46554;-66
2022/10/09 06:41:26;;;;;;;;;16.00;10.00;;;;;;;;5019132;28;45504;-66
2022/10/09 06:44:03;;;;;;;;;13.00;12.00;;;;;;;;5019195;28;45294;-66
2022/10/09 06:46:35;;;;;;;;;16.67;13.33;;;;;;;;5018843;28;45499;-66
2022/10/09 06:49:01;;;;;;;;;17.67;13.00;;;;;;;;5019071;28;46497;-66
2022/10/09 06:51:27;;;;;;;;;20.00;20.00;;;;;;;;5018063;28;45366;-66
2022/10/09 06:53:53;;;;;;;;;13.33;13.00;;;;;;;;5018321;28;45389;-66
2022/10/09 06:56:20;;;;;;;;;17.33;14.00;;;;;;;;5019141;28;45222;-66
2022/10/09 06:58:45;;;;;;;;;13.67;12.67;;;;;;;;5018661;28;46783;-67
2022/10/09 07:01:12;;;;;;;;;19.67;15.00;;;;;;;;5018419;28;45499;-66
2022/10/09 07:03:38;;;;;;;;;14.33;14.00;;;;;;;;5018940;28;45354;-66
2022/10/09 07:06:08;;;;;;;;;12.33;12.00;;;;;;;;5017358;28;45483;-67
2022/10/09 07:08:34;;;;;;;;;19.67;15.00;;;;;;;;5018512;28;47461;-67
2022/10/09 07:10:59;;;;;;;;;12.00;12.00;;;;;;;;5018656;28;45421;-67
2022/10/09 07:13:24;;;;;;;;;13.00;10.67;;;;;;;;5018211;28;45309;-67
2022/10/09 07:15:50;;;;;;;;;12.00;12.00;;;;;;;;5018106;28;45305;-67
2022/10/09 07:18:15;;;;;;;;;9.33;9.33;;;;;;;;5017269;28;46601;-67
2022/10/09 07:20:40;;;;;;;;;18.33;12.67;;;;;;;;5018665;28;45300;-67
2022/10/09 07:23:05;;;;;;;;;11.67;8.67;;;;;;;;5018082;28;45516;-67
2022/10/09 07:25:30;;;;;;;;;16.00;10.33;;;;;;;;5017161;28;45559;-67
2022/10/09 07:27:56;;;;;;;;;12.00;10.00;;;;;;;;5018190;28;46624;-67
2022/10/09 07:30:21;;;;;;;;;10.00;7.33;;;;;;;;5018169;28;45304;-66
2022/10/09 07:32:46;;;;;;;;;10.50;9.75;;;;;;;;5017799;28;45299;-67
2022/10/09 07:35:11;;;;;;;;;11.25;8.75;;;;;;;;5018579;28;45306;-66
2022/10/09 07:37:36;;;;;;;;;7.50;7.50;;;;;;;;5017976;28;45422;-66
2022/10/09 07:40:02;;;;;;;;;9.50;6.50;;;;;;;;5017817;28;45430;-68
2022/10/09 07:42:27;;;;;;;;;9.00;9.00;;;;;;;;5016859;28;45541;-67
2022/10/09 07:44:52;;;;;;;;;10.00;8.00;;;;;;;;5018470;28;45445;-66
2022/10/09 07:47:17;;;;;;;;;7.67;7.00;;;;;;;;5017922;28;47196;-66
2022/10/09 07:49:43;;;;;;;;;8.67;8.00;;;;;;;;5017801;28;45404;-66
2022/10/09 07:52:08;;;;;;;;;7.00;7.00;;;;;;;;5017861;28;45289;-67
2022/10/09 07:54:33;;;;;;;;;7.00;7.00;;;;;;;;5017392;28;45424;-67
2022/10/09 07:56:58;;;;;;;;;9.00;7.33;;;;;;;;5017822;28;45470;-67
2022/10/09 07:59:23;;;;;;;;;10.00;8.00;;;;;;;;5016378;28;45618;-67
2022/10/09 08:01:49;;;;;;;;;11.00;8.00;;;;;;;;5018096;28;45401;-67
2022/10/09 08:04:14;;;;;;;;;8.67;7.00;;;;;;;;5018170;28;45444;-66
2022/10/09 08:06:39;;;;;;;;;13.00;7.00;;;;;;;;5017230;28;45694;-67
2022/10/09 08:09:05;;;;;;;;;8.00;6.00;;;;;;;;5009432;28;45397;-67
2022/10/09 08:11:30;;;;;;;;;11.00;7.00;;;;;;;;5013778;28;45608;-66
2022/10/09 08:13:56;;;;;;;;;9.33;6.33;;;;;;;;5017128;28;45353;-69
2022/10/09 08:16:22;;;;;;;;;12.00;8.67;;;;;;;;5017358;28;46675;-69
2022/10/09 08:18:47;;;;;;;;;9.67;6.67;;;;;;;;5017616;28;45757;-69
2022/10/09 08:21:14;;;;;;;;;11.00;7.00;;;;;;;;5017842;28;45456;-71
2022/10/09 08:23:39;;;;;;;;;9.67;7.33;;;;;;;;5015382;28;45345;-71
2022/10/09 08:26:11;;;;;;;;;11.33;7.67;;;;;;;;5017561;28;45456;-71
2022/10/09 08:28:36;;;;;;;;;9.00;7.00;;;;;;;;5016087;28;45305;-71
2022/10/09 08:31:08;;;;;;;;;6.00;6.00;;;;;;;;5015070;28;45294;-72
2022/10/09 08:33:33;;;;;;;;;6.67;5.67;;;;;;;;5009418;28;45288;-73
2022/10/09 08:36:03;;;;;;;;;8.50;8.50;;;;;;;;5006039;28;45777;-74
2022/10/09 08:38:29;;;;;;;;;14.33;11.33;;;;;;;;5013276;28;45406;-75
2022/10/09 08:41:00;;;;;;;;;17.00;16.33;;;;;;;;5014633;28;45349;-72
2022/10/09 08:43:34;;;;;;;;;8.33;6.67;;;;;;;;5012773;28;45457;-78
2022/10/09 08:46:01;;;;;;;;;10.33;8.33;;;;;;;;5003250;28;45560;-71
2022/10/09 08:48:27;;;;;;;;;10.00;6.00;;;;;;;;5013473;28;46025;-67
2022/10/09 08:50:55;;;;;;;;;8.33;7.33;;;;;;;;5014777;28;45564;-69
2022/10/09 08:53:23;;;;;;;;;8.00;6.67;;;;;;;;5016069;28;45589;-77
2022/10/09 08:55:52;;;;;;;;;7.33;7.33;;;;;;;;5014790;28;45421;-80
2022/10/09 08:58:19;;;;;;;;;12.00;9.33;;;;;;;;5013455;28;45564;-72
2022/10/09 09:00:48;;;;;;;;;10.00;9.33;;;;;;;;5016054;28;46112;-68
2022/10/09 09:03:38;;;;;;;;;7.00;7.00;;;;;;;;5016991;28;45529;-67
2022/10/09 09:06:08;;;;;;;;;6.67;6.33;;;;;;;;5016650;28;46700;-70
2022/10/09 09:08:43;;;;;;;;;10.00;8.33;;;;;;;;5006996;28;48081;-69
2022/10/09 09:11:26;;;;;;;;;6.33;6.33;;;;;;;;5016676;28;45369;-68
2022/10/09 09:14:01;;;;;;;;;10.00;6.00;;;;;;;;5017176;28;45293;-69
2022/10/09 09:16:40;;;;;;;;;6.67;6.00;;;;;;;;5017091;28;45419;-68
2022/10/09 09:19:29;;;;;;;;;7.25;7.00;;;;;;;;5017143;28;45389;-69
2022/10/09 09:21:57;;;;;;;;;9.33;6.33;;;;;;;;4995095;28;45408;-69
2022/10/09 09:24:42;;;;;;;;;10.00;7.00;;;;;;;;4994796;28;45650;-69
2022/10/09 09:27:18;;;;;;;;;7.00;7.00;;;;;;;;4977370;28;45602;-69
2022/10/09 09:29:53;;;;;;;;;4.00;4.00;;;;;;;;4994683;28;45481;-69
2022/10/09 09:32:20;;;;;;;;;18.67;17.67;;;;;;;;4994857;28;45445;-69
2022/10/09 09:34:46;;;;;;;;;7.33;6.33;;;;;;;;4994895;28;45278;-68
2022/10/09 09:37:11;;;;;;;;;8.00;7.00;;;;;;;;4994686;28;45551;-69
2022/10/09 09:39:37;;;;;;;;;6.00;6.00;;;;;;;;4996692;28;46181;-69
2022/10/09 09:42:08;;;;;;;;;6.33;6.33;;;;;;;;4998284;28;45323;-69
2022/10/09 09:44:35;;;;;;;;;6.00;6.00;;;;;;;;4998436;28;45602;-69
2022/10/09 09:47:00;;;;;;;;;6.00;4.33;;;;;;;;4997849;28;46093;-68
2022/10/09 09:49:27;;;;;;;;;7.25;6.00;;;;;;;;4997962;28;45271;-69
2022/10/09 09:51:55;;;;;;;;;7.00;7.00;;;;;;;;4998158;28;45469;-68
2022/10/09 09:54:22;;;;;;;;;9.00;8.67;;;;;;;;4997961;28;45357;-68
2022/10/09 09:56:48;;;;;;;;;7.67;5.00;;;;;;;;4997671;28;47164;-69
2022/10/09 09:59:25;;;;;;;;;10.67;9.00;;;;;;;;5011520;28;45629;-69
2022/10/09 10:02:02;;;;;;;;;6.33;6.33;;;;;;;;5020126;28;45560;-68
2022/10/09 10:04:28;;;;;;;;;4.33;4.00;;;;;;;;5020097;28;45251;-68
2022/10/09 10:06:53;;;;;;;;;6.67;5.00;;;;;;;;5019846;28;46548;-68
2022/10/09 10:09:19;;;;;;;;;6.33;5.67;;;;;;;;5019651;28;45192;-68
2022/10/09 10:11:50;;;;;;;;;7.67;6.00;;;;;;;;5019885;28;45464;-69
2022/10/09 10:14:16;;;;;;;;;4.00;4.00;;;;;;;;5019968;28;45377;-69
2022/10/09 10:16:41;;;;;;;;;7.33;6.00;;;;;;;;5019465;28;46351;-69
2022/10/09 10:19:17;;;;;;;;;7.33;6.00;;;;;;;;5019857;28;45223;-69
2022/10/09 10:21:54;;;;;;;;;7.00;6.00;;;;;;;;5019737;28;45761;-69
2022/10/09 10:24:21;;;;;;;;;7.67;5.00;;;;;;;;5019575;28;45512;-69
2022/10/09 10:26:50;;;;;;;;;7.00;6.00;;;;;;;;5019155;28;47360;-69
2022/10/09 10:29:17;;;;;;;;;15.33;14.67;;;;;;;;5019225;28;45297;-70
2022/10/09 10:31:51;;;;;;;;;8.00;6.33;;;;;;;;5019507;28;45479;-69
2022/10/09 10:34:28;;;;;;;;;10.33;5.00;;;;;;;;5019559;28;45444;-70
2022/10/09 10:37:16;;;;;;;;;6.67;5.00;;;;;;;;5019374;28;45347;-69
2022/10/09 10:39:47;;;;;;;;;6.00;6.00;;;;;;;;4996993;28;45421;-69
2022/10/09 10:42:20;;;;;;;;;5.00;5.00;;;;;;;;4997469;28;45410;-69
2022/10/09 10:44:53;;;;;;;;;7.33;7.33;;;;;;;;4997464;28;45284;-69
2022/10/09 10:47:21;;;;;;;;;4.00;4.00;;;;;;;;4997079;28;45615;-69
2022/10/09 10:49:46;;;;;;;;;5.00;5.00;;;;;;;;4996242;28;45487;-71
2022/10/09 10:52:20;;;;;;;;;5.00;5.00;;;;;;;;4996636;28;45930;-71
2022/10/09 10:54:46;;;;;;;;;6.33;6.00;;;;;;;;4997070;28;45553;-71
2022/10/09 10:57:27;;;;;;;;;6.00;4.33;;;;;;;;4996891;28;46747;-71
2022/10/09 10:59:52;;;;;;;;;8.33;6.33;;;;;;;;4997015;28;45515;-70
2022/10/09 11:02:17;;;;;;;;;6.00;4.00;;;;;;;;4997044;28;45399;-71
2022/10/09 11:04:42;;;;;;;;;7.00;5.33;;;;;;;;4997322;28;45500;-70
2022/10/09 11:07:14;;;;;;;;;5.67;4.00;;;;;;;;4996737;28;46501;-71
2022/10/09 11:09:58;;;;;;;;;6.00;5.00;;;;;;;;4996602;28;45268;-70
2022/10/09 11:12:23;;;;;;;;;3.00;3.00;;;;;;;;4996992;28;45347;-71
2022/10/09 11:15:01;;;;;;;;;6.00;4.67;;;;;;;;4996947;28;45489;-71
2022/10/09 11:17:46;;;;;;;;;10.33;6.00;;;;;;;;5014304;28;46355;-69
2022/10/09 11:20:13;;;;;;;;;6.00;6.00;;;;;;;;5018682;28;45345;-69
2022/10/09 11:22:43;;;;;;;;;3.50;3.00;;;;;;;;5018830;28;45390;-69
2022/10/09 11:25:14;;;;;;;;;8.67;4.67;;;;;;;;5018952;28;45326;-69
2022/10/09 11:27:45;;;;;;;;;7.00;6.00;;;;;;;;5018056;28;47555;-71
2022/10/09 11:30:15;;;;;;;;;7.00;5.00;;;;;;;;5018529;28;45455;-71
2022/10/09 11:32:46;;;;;;;;;11.67;8.33;;;;;;;;5018660;28;45459;-71
2022/10/09 11:35:19;;;;;;;;;5.33;5.33;;;;;;;;5018623;28;45391;-71
2022/10/09 11:37:47;;;;;;;;;6.33;6.00;;;;;;;;5018620;28;45441;-71
2022/10/09 11:40:44;;;;;;;;;6.00;5.25;;;;;;;;5018344;28;45358;-69
2022/10/09 11:43:22;;;;;;;;;11.33;7.00;;;;;;;;4996581;28;45433;-69
2022/10/09 11:45:57;;;;;;;;;4.00;4.00;;;;;;;;4996592;28;45494;-69
2022/10/09 11:48:43;;;;;;;;;4.67;4.67;;;;;;;;4996157;28;45398;-69
2022/10/09 11:51:30;;;;;;;;;5.00;4.00;;;;;;;;4996126;28;45429;-69
2022/10/09 11:53:56;;;;;;;;;5.00;5.00;;;;;;;;4996174;28;45380;-69
2022/10/09 11:56:23;;;;;;;;;5.00;3.75;;;;;;;;4996114;28;45552;-68
2022/10/09 11:58:55;;;;;;;;;3.25;3.25;;;;;;;;4996104;28;45355;-69
2022/10/09 12:01:22;;;;;;;;;5.25;3.75;;;;;;;;4995523;28;45473;-69
2022/10/09 12:03:57;;;;;;;;;5.00;4.33;;;;;;;;4996016;28;45408;-71
2022/10/09 12:06:22;;;;;;;;;5.00;4.33;;;;;;;;4996243;28;45816;-68
2022/10/09 12:08:55;;;;;;;;;4.00;4.00;;;;;;;;4995845;28;46696;-69
2022/10/09 12:11:21;;;;;;;;;4.50;4.50;;;;;;;;4995536;28;45469;-68
2022/10/09 12:13:49;;;;;;;;;5.33;5.00;;;;;;;;4995884;28;45572;-69
2022/10/09 12:16:49;;;;;;;;;4.00;4.00;;;;;;;;4995965;28;45440;-69
2022/10/09 12:19:22;;;;;;;;;8.00;4.00;;;;;;;;4912153;28;45408;-69
2022/10/09 12:21:50;;;;;;;;;3.50;3.50;;;;;;;;4918042;28;45379;-69
2022/10/09 12:24:18;;;;;;;;;3.00;3.00;;;;;;;;4918191;28;45428;-69
2022/10/09 12:26:44;;;;;;;;;5.00;5.00;;;;;;;;4918142;28;45433;-70
2022/10/09 12:29:16;;;;;;;;;6.50;3.25;;;;;;;;4917708;28;45516;-69
2022/10/09 12:31:42;;;;;;;;;4.50;3.00;;;;;;;;4917948;28;45408;-69
2022/10/09 12:34:22;;;;;;;;;4.33;3.00;;;;;;;;4917942;28;45507;-69
2022/10/09 12:36:48;;;;;;;;;4.33;4.00;;;;;;;;4918175;28;45381;-69
2022/10/09 12:39:14;;;;;;;;;4.00;4.00;;;;;;;;4917894;28;46898;-69
2022/10/09 12:41:42;;;;;;;;;4.00;3.00;;;;;;;;4917783;28;45531;-69
2022/10/09 12:44:14;;;;;;;;;5.33;5.33;;;;;;;;4917908;28;45413;-69
2022/10/09 12:46:39;;;;;;;;;5.67;4.33;;;;;;;;4918141;28;45395;-70
2022/10/09 12:49:14;;;;;;;;;2.33;2.33;;;;;;;;4917673;28;45532;-69
2022/10/09 12:51:39;;;;;;;;;2.50;2.50;;;;;;;;4917691;28;45502;-69
2022/10/09 12:54:08;;;;;;;;;3.00;3.00;;;;;;;;5002328;28;45474;-69
2022/10/09 12:56:37;;;;;;;;;3.33;2.00;;;;;;;;5017542;28;45457;-69
2022/10/09 12:59:03;;;;;;;;;2.00;2.00;;;;;;;;5017054;28;46398;-68
2022/10/09 13:01:28;;;;;;;;;4.25;4.00;;;;;;;;5017252;28;45354;-69
2022/10/09 13:04:03;;;;;;;;;3.00;2.00;;;;;;;;5017132;28;45410;-69
2022/10/09 13:06:36;;;;;;;;;3.33;2.00;;;;;;;;5017384;28;45307;-69
2022/10/09 13:09:03;;;;;;;;;11.00;2.00;;;;;;;;5017098;28;46201;-68
2022/10/09 13:11:48;;;;;;;;;3.00;2.33;;;;;;;;5016792;28;45331;-69
2022/10/09 13:14:40;;;;;;;;;3.00;3.00;;;;;;;;5018276;28;45314;-69
2022/10/09 13:17:05;;;;;;;;;4.75;2.00;;;;;;;;5019615;28;45338;-69
2022/10/09 13:19:32;;;;;;;;;2.00;2.00;;;;;;;;5020418;28;46288;-69
2022/10/09 13:22:06;;;;;;;;;2.67;2.67;;;;;;;;5020624;28;45208;-69
2022/10/09 13:24:31;;;;;;;;;7.33;6.00;;;;;;;;5020512;28;45421;-69
2022/10/09 13:26:56;;;;;;;;;5.25;4.00;;;;;;;;5020320;28;45481;-69
2022/10/09 13:29:22;;;;;;;;;5.00;3.00;;;;;;;;5020151;28;46420;-69
2022/10/09 13:31:47;;;;;;;;;2.67;2.67;;;;;;;;5020253;28;45196;-69
2022/10/09 13:34:13;;;;;;;;;3.00;2.50;;;;;;;;5020451;28;45336;-69
2022/10/09 13:36:38;;;;;;;;;2.00;2.00;;;;;;;;5020571;28;45505;-68
2022/10/09 13:39:04;;;;;;;;;2.00;2.00;;;;;;;;5019969;28;45719;-69
2022/10/09 13:41:30;;;;;;;;;4.00;2.00;;;;;;;;5020014;28;45405;-69
2022/10/09 13:43:56;;;;;;;;;5.00;3.00;;;;;;;;5020245;28;45222;-69
2022/10/09 13:46:21;;;;;;;;;4.00;2.67;;;;;;;;5020599;28;45382;-69
2022/10/09 13:48:46;;;;;;;;;2.00;2.00;;;;;;;;5019931;28;46358;-69
2022/10/09 13:51:11;;;;;;;;;5.67;5.00;;;;;;;;5019936;28;45367;-69
2022/10/09 13:53:37;;;;;;;;;3.00;3.00;;;;;;;;5020171;28;45354;-70
2022/10/09 13:56:02;;;;;;;;;4.50;3.75;;;;;;;;5020241;28;45399;-69
2022/10/09 13:58:28;;;;;;;;;2.50;2.50;;;;;;;;5019976;28;46356;-69
2022/10/09 14:00:53;;;;;;;;;3.67;2.00;;;;;;;;5019818;28;45443;-69
2022/10/09 14:03:18;;;;;;;;;3.00;2.00;;;;;;;;5020190;28;45392;-69
2022/10/09 14:05:43;;;;;;;;;3.50;2.00;;;;;;;;5020174;28;45277;-69
2022/10/09 14:08:09;;;;;;;;;4.00;2.00;;;;;;;;5019722;28;45623;-69
2022/10/09 14:10:34;;;;;;;;;2.75;2.00;;;;;;;;5019659;28;45360;-68
2022/10/09 14:12:59;;;;;;;;;4.75;2.00;;;;;;;;5020014;28;45386;-69
2022/10/09 14:15:25;;;;;;;;;2.50;2.00;;;;;;;;5019958;28;45396;-69
2022/10/09 14:17:50;;;;;;;;;0.50;0.50;;;;;;;;5019650;28;46458;-69
2022/10/09 14:20:15;;;;;;;;;3.50;1.00;;;;;;;;5019712;28;45238;-69
2022/10/09 14:22:41;;;;;;;;;2.00;2.00;;;;;;;;5020005;28;45286;-69
2022/10/09 14:25:06;;;;;;;;;2.00;2.00;;;;;;;;5019685;28;45391;-69
2022/10/09 14:27:31;;;;;;;;;2.50;2.00;;;;;;;;5019115;28;45373;-69
2022/10/09 14:29:57;;;;;;;;;1.25;1.00;;;;;;;;5019376;28;45241;-69
2022/10/09 14:32:22;;;;;;;;;1.50;1.50;;;;;;;;5019617;28;45401;-69
2022/10/09 14:34:47;;;;;;;;;1.50;1.00;;;;;;;;5019788;28;45315;-69